Sault Sainte Marie, MI

6:37 PM EDT on August 04, 2015 (GMT -0400)
Sault Ste Marie Municipal / Sanderson Field | | Change Station
CLOSE
Current Station
Airport
Location: Sault Ste Marie,
Elevation: 715 ft
Nearby Weather Stations

Elev 715 ft 46.48 °N, 84.36 °W | Updated 42 minutes ago

Partly Cloudy
Partly Cloudy
63 °F
Feels Like 63 °F
N
14
Wind Variable Wind from NW
Gusts 23 mph

Today
High -- | Low -- °F
--% Chance of Precip.
Yesterday
High -- | Low -- °F
Precip. -- in
6:21 AM 9:04 PM
Waning Gibbous, 74% visible
Pressure 29.92 in
Visibility 10.0 miles
Clouds Few 2500 ft
Dew Point 49 °F
Humidity 60%
Rainfall 0.00 in
Snow Depth Not available.
UV 3 out of 12
Pollen 6.30 out of 12
Air Quality Not available.
Flu Activity Not available.
METAR KANJ 042155Z AUTO 32012G20KT 10SM FEW025 17/09 A2992 RMK AO2 SLP131 T01720094

More Conditions Fewer Conditions

Pressure 29.92 in
Visibility 10.0 miles
Clouds Few 2500 ft
Dew Point 49 °F
Humidity 60%
Rainfall 0.00 in
Snow Depth Not available.
UV 3 out of 12
Pollen 6.30 out of 12
Air Quality Not available.
Flu Activity Not available.
METAR KANJ 042155Z AUTO 32012G20KT 10SM FEW025 17/09 A2992 RMK AO2 SLP131 T01720094

More Conditions Fewer Conditions

Nowcast | as of 6:00 PM EDT on August 4, 2015

At 7 PM...partly cloudy. Temperature 60. Northwest winds 13 mph. At 9 PM...partly cloudy. Temperature 57. Northwest winds 10 mph. At 11 PM...partly cloudy. Temperature 53. West winds 7 mph. At 1 am...partly cloudy. Temperature 51. Northwest winds 7 mph.

×

10-Day Weather Forecast

×

Almanac

Astronomy

Aug. 04, 2015 Rise Set
Actual Time
Civil Twilight
Nautical Twilight
Astronomical Twilight
Moon
Length of Visible Light
Length of Day
Tomorrow will be .
, % of the Moon is Illuminated

Today's Extremes

State Highs State Lows

Community

WunderPhotos

Upload Photos

1,844,007 photos uploaded!

WunderBlogs® & News

Nearby

Air Quality

  Air Quality AQ Index Pollutant
Not available.

Snow Depth

Station Depth Elevation

Earthquake Activity

City Distance Mag. Time & Date
Minimum magnitude displayed is 2.5.

Coastal Water Temperatures

Place Temperature

Stations

Nearby Weather Stations

Station Location Temp. Windchill Dew Point Humidity Wind Precip. Elev Updated Type